Terminal Aerodrome Forecast
Issued by NWS Billings, MT

Home | Current Version | Previous Version | Text Only | Print | Product List | Glossary On
Versions: 1 2 3 4 5 6 7 8 9 10 11 12 13 14 15 16 17 18 19 20
000
FTUS45 KBYZ 271126
TAFBIL
TAF
KBIL 271126Z 2712/2812 30005KT P6SM SCT070 OVC150
     FM271500 01007KT P6SM SCT025 BKN100
     FM271800 02012KT P6SM SCT030 BKN070
     FM272100 05009KT P6SM VCSH SCT050 BKN100
     FM280900 05005KT P6SM VCSH BKN030=

USA.gov is the U.S. government's official web portal to all federal, state and local government web resources and services.